createdAt,value
2023-06-03T00:04:35.449Z,1.10
2023-06-03T00:11:20.575Z,1.23
2023-06-03T00:18:03.816Z,1.38
2023-06-03T00:24:46.067Z,1.02
2023-06-03T00:31:28.449Z,1.25
2023-06-03T00:38:11.160Z,1.35
2023-06-03T00:44:53.438Z,1.33
2023-06-03T00:51:36.938Z,1.20
2023-06-03T00:58:19.294Z,1.10
2023-06-03T01:05:04.799Z,1.15
2023-06-03T01:12:12.013Z,1.08
2023-06-03T01:18:57.240Z,1.00
2023-06-03T01:25:43.094Z,1.23
2023-06-03T01:32:26.960Z,0.93
2023-06-03T01:39:09.832Z,1.15
2023-06-03T01:45:53.356Z,0.88
2023-06-03T01:52:36.293Z,0.82
2023-06-03T01:59:18.738Z,0.90
2023-06-03T02:06:01.151Z,0.73
2023-06-03T02:12:44.500Z,0.73
2023-06-03T02:26:14.731Z,1.00
2023-06-03T02:32:57.252Z,0.80
2023-06-03T02:39:40.036Z,0.70
2023-06-03T02:46:22.764Z,0.80
2023-06-03T02:53:05.103Z,0.88
2023-06-03T02:59:48.108Z,0.80
2023-06-03T03:06:30.590Z,0.85
2023-06-03T03:13:12.948Z,1.00
2023-06-03T03:19:56.747Z,0.75
2023-06-03T03:26:39.225Z,1.00
2023-06-03T03:33:22.585Z,0.50
2023-06-03T03:40:09.569Z,1.13
2023-06-03T03:47:02.744Z,0.82
2023-06-03T03:53:49.177Z,0.70
2023-06-03T04:00:37.164Z,0.55
2023-06-03T04:07:21.635Z,0.80
2023-06-03T04:14:09.511Z,0.77
2023-06-03T04:20:57.215Z,0.60
2023-06-03T04:27:40.770Z,0.82
2023-06-03T04:34:30.455Z,0.67
2023-06-03T04:41:16.563Z,0.40
2023-06-03T04:48:02.759Z,0.70
2023-06-03T04:54:47.947Z,0.50
2023-06-03T05:08:15.989Z,0.40
2023-06-03T05:14:58.949Z,0.77
2023-06-03T05:21:42.632Z,0.47
2023-06-03T05:28:26.938Z,0.50
2023-06-03T05:35:10.918Z,0.40
2023-06-03T05:41:54.117Z,0.40
2023-06-03T05:48:37.938Z,0.30
2023-06-03T05:55:21.683Z,0.70
2023-06-03T06:02:04.549Z,0.20
2023-06-03T06:08:47.035Z,0.50
2023-06-03T06:15:33.013Z,0.43
2023-06-03T06:22:16.965Z,0.30
2023-06-03T06:28:59.485Z,0.30
2023-06-03T06:35:42.215Z,0.32
2023-06-03T06:42:37.197Z,0.30
2023-06-03T06:49:35.230Z,0.30
2023-06-03T06:56:19.326Z,0.20
2023-06-03T07:03:20.038Z,0.30
2023-06-03T07:10:05.385Z,0.30
2023-06-03T07:16:49.904Z,0.70
2023-06-03T07:23:34.863Z,0.40
2023-06-03T07:30:18.517Z,0.50
2023-06-03T07:37:07.114Z,0.40
2023-06-03T07:43:52.144Z,0.60
2023-06-03T07:50:34.475Z,0.30
2023-06-03T07:57:17.446Z,0.22
2023-06-03T08:04:01.212Z,1.05
2023-06-03T08:10:47.971Z,0.30
2023-06-03T08:17:42.355Z,0.20
2023-06-03T08:24:24.658Z,0.20
2023-06-03T08:31:07.578Z,0.28
2023-06-03T08:37:50.662Z,0.30
2023-06-03T08:44:57.556Z,0.30
2023-06-03T08:51:43.340Z,0.40
2023-06-03T08:58:37.047Z,0.30
2023-06-03T09:05:21.602Z,0.20
2023-06-03T09:12:07.087Z,0.20
2023-06-03T09:18:53.322Z,0.30
2023-06-03T09:25:35.813Z,0.30
2023-06-03T09:32:17.992Z,0.25
2023-06-03T09:39:00.983Z,0.20
2023-06-03T09:45:43.297Z,0.30
2023-06-03T09:52:36.936Z,0.30
2023-06-03T09:59:22.340Z,0.30
2023-06-03T10:06:20.066Z,0.20
2023-06-03T10:13:22.988Z,0.40
2023-06-03T10:20:06.525Z,0.30
2023-06-03T10:26:51.011Z,0.30
2023-06-03T10:33:34.666Z,0.30
2023-06-03T10:47:17.136Z,0.20
2023-06-03T10:54:36.208Z,0.35
2023-06-03T11:01:18.580Z,0.30
2023-06-03T11:08:00.806Z,0.30
2023-06-03T11:14:49.956Z,0.77
2023-06-03T11:21:48.408Z,0.47
2023-06-03T11:28:31.214Z,0.30
2023-06-03T11:35:13.392Z,0.28
2023-06-03T11:42:09.531Z,0.22
2023-06-03T11:48:52.325Z,0.22
2023-06-03T11:55:37.827Z,0.60
2023-06-03T12:02:20.218Z,0.40
2023-06-03T12:09:02.658Z,0.40
2023-06-03T12:15:49.533Z,0.30
2023-06-03T12:22:32.465Z,0.20
2023-06-03T12:29:15.749Z,0.40
2023-06-03T12:35:58.107Z,0.28
2023-06-03T12:42:45.915Z,0.50
2023-06-03T12:49:28.146Z,0.22
2023-06-03T12:56:10.936Z,0.25
2023-06-03T13:02:55.730Z,0.20
2023-06-03T13:09:38.732Z,0.25
2023-06-03T13:16:21.320Z,0.20
2023-06-03T13:23:03.789Z,0.20
2023-06-03T13:29:46.244Z,0.15
2023-06-03T13:36:28.512Z,0.30
2023-06-03T13:43:11.177Z,0.20
2023-06-03T13:49:54.482Z,0.40
2023-06-03T13:56:36.880Z,0.30
2023-06-03T14:03:19.133Z,0.25
2023-06-03T14:10:01.460Z,0.30
2023-06-03T14:16:45.418Z,0.40
2023-06-03T14:23:27.856Z,0.25
2023-06-03T14:30:10.852Z,0.30
2023-06-03T14:36:53.146Z,0.40
2023-06-03T14:43:36.673Z,0.30
2023-06-03T14:50:19.120Z,0.40
2023-06-03T14:57:01.368Z,0.50
2023-06-03T15:03:43.630Z,0.30
2023-06-03T15:10:26.237Z,0.75
2023-06-03T15:17:09.473Z,0.23
2023-06-03T15:23:51.715Z,0.30
2023-06-03T15:30:33.919Z,0.30
2023-06-03T15:37:16.360Z,2.33
2023-06-03T15:43:58.891Z,0.40
2023-06-03T15:50:41.300Z,0.30
2023-06-03T15:57:23.622Z,0.20
2023-06-03T16:04:06.005Z,0.30
2023-06-03T16:10:48.312Z,0.40
2023-06-03T16:17:30.730Z,0.55
2023-06-03T16:24:13.100Z,0.30
2023-06-03T16:30:55.259Z,0.30
2023-06-03T16:37:37.874Z,0.40
2023-06-03T16:44:20.405Z,0.77
2023-06-03T16:51:03.761Z,3.35
2023-06-03T16:57:46.855Z,0.32
2023-06-03T17:04:29.161Z,0.47
2023-06-03T17:11:11.463Z,0.30
2023-06-03T17:17:53.774Z,0.38
2023-06-03T17:24:36.267Z,0.40
2023-06-03T17:31:18.895Z,0.63
2023-06-03T17:38:01.642Z,0.30
2023-06-03T17:44:44.127Z,0.23
2023-06-03T17:51:26.555Z,0.35
2023-06-03T17:58:08.761Z,0.30
2023-06-03T18:04:51.001Z,0.60
2023-06-03T18:11:33.299Z,0.60
2023-06-03T18:18:16.572Z,0.52
2023-06-03T18:24:58.801Z,0.50
2023-06-03T18:31:41.587Z,0.60
2023-06-03T18:38:23.889Z,0.60
2023-06-03T18:45:07.220Z,0.60
2023-06-03T18:51:49.494Z,0.60
2023-06-03T18:58:32.159Z,0.60
2023-06-03T19:05:14.550Z,1.85
2023-06-03T19:11:56.764Z,1.20
2023-06-03T19:25:37.860Z,2.25
2023-06-03T19:32:20.405Z,2.20
2023-06-03T19:39:02.738Z,1.80
2023-06-03T19:45:46.392Z,2.27
2023-06-03T19:52:28.735Z,2.20
2023-06-03T19:59:15.174Z,1.35
2023-06-03T20:05:57.634Z,1.27
2023-06-03T20:12:39.824Z,1.33
2023-06-03T20:19:22.083Z,2.85
2023-06-03T20:26:04.597Z,2.08
2023-06-03T20:32:47.235Z,2.35
2023-06-03T20:39:29.490Z,1.35
2023-06-03T20:46:12.471Z,1.10
2023-06-03T20:52:54.771Z,1.77
2023-06-03T20:59:37.013Z,2.08
2023-06-03T21:06:19.700Z,1.63
2023-06-03T21:13:02.012Z,1.50
2023-06-03T21:19:44.463Z,1.83
2023-06-03T21:26:27.073Z,1.30
2023-06-03T21:33:09.563Z,1.00
2023-06-03T21:39:56.107Z,1.20
2023-06-03T21:46:38.590Z,1.27
2023-06-03T21:53:22.803Z,1.00
2023-06-03T22:00:13.751Z,1.60
2023-06-03T22:06:56.047Z,0.90
2023-06-03T22:13:38.370Z,1.30
2023-06-03T22:20:21.257Z,1.05
2023-06-03T22:27:03.667Z,1.40
2023-06-03T22:33:45.939Z,1.10
2023-06-03T22:40:28.231Z,1.25
2023-06-03T22:47:11.340Z,1.20
2023-06-03T22:53:53.868Z,1.05
2023-06-03T23:00:36.398Z,1.20
2023-06-03T23:07:18.712Z,1.10
2023-06-03T23:14:01.024Z,1.20
2023-06-03T23:20:43.527Z,1.20
2023-06-03T23:27:25.863Z,0.80
2023-06-03T23:34:08.750Z,1.20
2023-06-03T23:40:50.969Z,1.38
2023-06-03T23:47:33.731Z,1.02
2023-06-03T23:54:16.211Z,1.13
